createdAt,value
2022-11-15T00:00:50.167Z,87.25
2022-11-15T00:08:09.891Z,86.52
2022-11-15T00:11:04.575Z,86.14
2022-11-15T00:13:52.949Z,86.37
2022-11-15T00:16:50.797Z,86.07
2022-11-15T00:19:39.315Z,86.35
2022-11-15T00:23:04.869Z,85.76
2022-11-15T00:26:00.344Z,85.99
2022-11-15T00:29:00.251Z,85.94
2022-11-15T00:31:52.798Z,85.94
2022-11-15T00:34:53.154Z,85.98
2022-11-15T00:37:41.298Z,85.91
2022-11-15T00:40:34.307Z,86.01
2022-11-15T00:43:23.000Z,86.21
2022-11-15T00:46:40.589Z,85.94
2022-11-15T00:49:28.845Z,86.34
2022-11-15T00:52:21.655Z,86.19
2022-11-15T00:55:10.679Z,86.26
2022-11-15T00:58:29.874Z,85.37
2022-11-15T01:01:55.699Z,85.86
2022-11-15T01:05:39.638Z,85.70
2022-11-15T01:09:04.055Z,85.67
2022-11-15T01:12:19.340Z,85.63
2022-11-15T01:15:34.617Z,85.31
2022-11-15T01:18:22.464Z,85.63
2022-11-15T01:21:11.269Z,85.31
2022-11-15T01:23:59.806Z,85.63
2022-11-15T01:27:13.988Z,84.93
2022-11-15T01:30:03.223Z,85.44
2022-11-15T01:32:53.806Z,85.57
2022-11-15T01:35:43.272Z,85.39
2022-11-15T01:38:37.493Z,84.91
2022-11-15T01:41:27.817Z,85.31
2022-11-15T01:44:47.701Z,84.84
2022-11-15T01:47:39.755Z,84.94
2022-11-15T01:50:33.338Z,85.01
2022-11-15T01:53:26.111Z,84.97
2022-11-15T01:56:18.249Z,84.97
2022-11-15T01:59:10.178Z,84.21
2022-11-15T02:02:11.449Z,84.24
2022-11-15T02:05:03.482Z,84.11
2022-11-15T02:08:04.759Z,84.01
2022-11-15T02:10:54.048Z,84.32
2022-11-15T02:13:43.922Z,84.05
2022-11-15T02:16:45.695Z,83.83
2022-11-15T02:19:59.393Z,83.90
2022-11-15T02:23:06.762Z,83.80
2022-11-15T02:26:16.633Z,84.03
2022-11-15T02:29:11.650Z,84.57
2022-11-15T02:32:11.654Z,83.94
2022-11-15T02:35:12.288Z,83.74
2022-11-15T02:38:19.863Z,84.17
2022-11-15T02:41:11.957Z,84.37
2022-11-15T02:44:05.023Z,84.49
2022-11-15T02:47:15.089Z,84.25
2022-11-15T02:50:27.482Z,84.00
2022-11-15T02:53:17.334Z,84.44
2022-11-15T02:56:23.350Z,83.96
2022-11-15T02:59:26.161Z,84.50
2022-11-15T03:02:32.597Z,84.18
2022-11-15T03:05:31.577Z,84.21
2022-11-15T03:08:28.747Z,84.06
2022-11-15T03:11:19.629Z,84.00
2022-11-15T03:14:26.354Z,83.66
2022-11-15T03:17:50.415Z,83.52
2022-11-15T03:20:39.746Z,83.70
2022-11-15T03:23:30.809Z,83.66
2022-11-15T03:26:26.397Z,83.88
2022-11-15T03:29:45.701Z,83.80
2022-11-15T03:33:03.361Z,84.05
2022-11-15T03:35:54.813Z,84.11
2022-11-15T03:38:56.093Z,83.80
2022-11-15T03:41:51.336Z,84.09
2022-11-15T03:44:49.400Z,83.91
2022-11-15T03:47:48.168Z,83.76
2022-11-15T03:50:45.965Z,83.80
2022-11-15T03:53:36.488Z,83.77
2022-11-15T03:56:36.719Z,84.14
2022-11-15T03:59:25.207Z,84.19
2022-11-15T04:02:12.371Z,83.97
2022-11-15T04:05:00.672Z,83.85
2022-11-15T04:08:19.116Z,84.10
2022-11-15T04:11:08.540Z,83.90
2022-11-15T04:14:02.922Z,83.91
2022-11-15T04:16:51.734Z,83.93
2022-11-15T04:20:45.411Z,83.80
2022-11-15T04:24:08.606Z,83.93
2022-11-15T04:27:02.639Z,83.42
2022-11-15T04:30:02.716Z,83.73
2022-11-15T04:32:55.586Z,83.68
2022-11-15T04:35:44.713Z,83.74
2022-11-15T04:38:36.060Z,83.93
2022-11-15T04:41:24.224Z,83.80
2022-11-15T04:44:44.710Z,83.39
2022-11-15T04:48:03.853Z,83.35
2022-11-15T04:52:04.877Z,82.92
2022-11-15T04:54:53.955Z,83.13
2022-11-15T04:58:45.712Z,82.97
2022-11-15T05:01:44.536Z,83.32
2022-11-15T05:04:31.237Z,80.46
2022-11-15T05:07:18.609Z,81.81
2022-11-15T05:10:06.483Z,82.39
2022-11-15T05:12:53.418Z,82.30
2022-11-15T05:15:40.523Z,81.99
2022-11-15T05:18:30.032Z,82.20
2022-11-15T05:21:17.601Z,81.99
2022-11-15T05:24:05.437Z,81.78
2022-11-15T05:26:52.551Z,81.66
2022-11-15T05:29:39.467Z,81.60
2022-11-15T05:32:26.517Z,81.84
2022-11-15T05:35:17.527Z,81.86
2022-11-15T05:38:05.192Z,81.51
2022-11-15T05:40:52.312Z,81.79
2022-11-15T05:43:43.363Z,81.71
2022-11-15T05:46:31.690Z,81.85
2022-11-15T05:49:23.106Z,81.67
2022-11-15T05:52:14.316Z,81.22
2022-11-15T05:55:01.852Z,81.61
2022-11-15T05:57:48.541Z,81.87
2022-11-15T06:00:36.118Z,81.48
2022-11-15T06:03:23.223Z,81.24
2022-11-15T06:06:16.237Z,80.80
2022-11-15T06:09:05.339Z,81.49
2022-11-15T06:11:52.030Z,81.50
2022-11-15T06:14:38.911Z,81.56
2022-11-15T06:17:26.069Z,81.65
2022-11-15T06:20:13.544Z,81.72
2022-11-15T06:23:00.873Z,81.55
2022-11-15T06:25:50.230Z,81.60
2022-11-15T06:28:36.995Z,81.40
2022-11-15T06:31:24.059Z,81.77
2022-11-15T06:34:11.218Z,81.29
2022-11-15T06:36:58.326Z,81.45
2022-11-15T06:39:45.422Z,81.30
2022-11-15T06:42:33.743Z,81.82
2022-11-15T06:45:20.699Z,81.48
2022-11-15T06:48:08.554Z,81.47
2022-11-15T06:50:56.085Z,81.83
2022-11-15T06:53:43.194Z,81.87
2022-11-15T06:56:29.996Z,81.72
2022-11-15T06:59:18.255Z,81.92
2022-11-15T07:02:06.046Z,81.66
2022-11-15T07:04:53.412Z,81.67
2022-11-15T07:07:40.377Z,81.08
2022-11-15T07:10:28.439Z,81.18
2022-11-15T07:13:16.187Z,80.92
2022-11-15T07:16:06.319Z,80.87
2022-11-15T07:18:53.219Z,81.35
2022-11-15T07:21:40.179Z,81.25
2022-11-15T07:24:28.231Z,81.54
2022-11-15T07:27:15.434Z,81.43
2022-11-15T07:30:03.334Z,81.78
2022-11-15T07:32:55.019Z,81.37
2022-11-15T07:35:43.645Z,81.35
2022-11-15T07:38:31.440Z,81.61
2022-11-15T07:41:18.316Z,81.37
2022-11-15T07:44:05.569Z,81.67
2022-11-15T07:46:52.246Z,81.45
2022-11-15T07:49:40.740Z,81.04
2022-11-15T07:52:27.965Z,81.46
2022-11-15T07:55:15.035Z,81.39
2022-11-15T07:58:05.286Z,81.33
2022-11-15T08:00:52.233Z,81.08
2022-11-15T08:03:39.444Z,80.94
2022-11-15T08:06:27.565Z,81.42
2022-11-15T08:09:15.602Z,81.48
2022-11-15T08:12:03.656Z,81.28
2022-11-15T08:14:50.215Z,81.78
2022-11-15T08:17:37.606Z,81.71
2022-11-15T08:20:25.010Z,81.57
2022-11-15T08:23:14.479Z,81.76
2022-11-15T08:26:05.572Z,81.69
2022-11-15T08:28:52.464Z,81.73
2022-11-15T08:31:39.836Z,81.76
2022-11-15T08:34:26.760Z,81.55
2022-11-15T08:37:13.875Z,81.90
2022-11-15T08:40:02.073Z,81.71
2022-11-15T08:42:49.489Z,81.76
2022-11-15T08:45:37.327Z,81.76
2022-11-15T08:48:24.771Z,81.49
2022-11-15T08:51:11.727Z,81.58
2022-11-15T08:53:59.023Z,81.55
2022-11-15T08:56:47.199Z,81.18
2022-11-15T08:59:34.870Z,81.08
2022-11-15T09:02:21.855Z,81.31
2022-11-15T09:05:10.271Z,81.01
2022-11-15T09:07:57.734Z,80.91
2022-11-15T09:10:44.500Z,81.07
2022-11-15T09:13:33.230Z,80.86
2022-11-15T09:16:20.302Z,80.83
2022-11-15T09:19:11.649Z,80.86
2022-11-15T09:21:59.191Z,80.96
2022-11-15T09:24:46.217Z,80.95
2022-11-15T09:27:33.493Z,81.14
2022-11-15T09:30:22.002Z,81.53
2022-11-15T09:33:09.944Z,81.82
2022-11-15T09:36:01.525Z,82.33
2022-11-15T09:38:48.481Z,82.81
2022-11-15T09:42:10.133Z,82.60
2022-11-15T09:45:15.700Z,82.84
2022-11-15T09:48:38.328Z,83.35
2022-11-15T09:51:35.591Z,83.82
2022-11-15T09:54:51.033Z,84.00
2022-11-15T09:57:16.367Z,84.14
2022-11-15T10:00:23.779Z,83.89
2022-11-15T10:03:05.378Z,83.92
2022-11-15T10:05:42.980Z,84.29
2022-11-15T10:08:27.938Z,84.33
2022-11-15T10:11:30.462Z,85.02
2022-11-15T10:13:51.389Z,84.57
2022-11-15T10:16:48.807Z,84.60
2022-11-15T10:19:26.183Z,85.19
2022-11-15T10:22:08.897Z,84.84
2022-11-15T10:24:42.499Z,84.95
2022-11-15T10:27:14.150Z,84.65
2022-11-15T10:29:46.105Z,84.84
2022-11-15T10:32:15.759Z,84.83
2022-11-15T10:34:44.721Z,85.22
2022-11-15T10:37:14.678Z,85.31
2022-11-15T10:39:43.161Z,85.02
2022-11-15T10:42:19.877Z,85.29
2022-11-15T10:44:48.498Z,85.38
2022-11-15T10:47:28.532Z,84.88
2022-11-15T10:50:08.883Z,84.87
2022-11-15T10:52:46.889Z,84.97
2022-11-15T10:55:28.419Z,84.82
2022-11-15T10:57:59.807Z,84.86
2022-11-15T11:00:38.008Z,84.96
2022-11-15T11:03:09.279Z,84.85
2022-11-15T11:05:42.161Z,85.06
2022-11-15T11:08:26.085Z,85.11
2022-11-15T11:11:01.291Z,85.74
2022-11-15T11:13:32.002Z,85.71
2022-11-15T11:16:22.266Z,85.95
2022-11-15T11:19:04.294Z,86.40
2022-11-15T11:21:46.032Z,85.94
2022-11-15T11:24:26.882Z,85.75
2022-11-15T11:27:10.204Z,85.81
2022-11-15T11:29:53.899Z,85.57
2022-11-15T11:32:43.142Z,85.42
2022-11-15T11:35:17.783Z,85.54
2022-11-15T11:37:50.237Z,85.54
2022-11-15T11:40:31.835Z,85.05
2022-11-15T11:43:09.516Z,85.12
2022-11-15T11:45:57.363Z,85.32
2022-11-15T11:48:42.266Z,85.68
2022-11-15T11:51:18.166Z,85.56
2022-11-15T11:53:53.269Z,85.83
2022-11-15T11:56:27.641Z,86.33
2022-11-15T11:59:00.416Z,86.27
2022-11-15T12:01:34.935Z,86.33
2022-11-15T12:04:11.801Z,86.46
2022-11-15T12:06:47.444Z,86.48
2022-11-15T12:09:22.465Z,86.72
2022-11-15T12:11:57.435Z,86.78
2022-11-15T12:14:36.508Z,87.04
2022-11-15T12:17:05.468Z,87.24
2022-11-15T12:19:34.092Z,87.39
2022-11-15T12:22:07.135Z,87.27
2022-11-15T12:24:41.154Z,87.00
2022-11-15T12:27:28.449Z,86.64
2022-11-15T12:30:00.157Z,86.64
2022-11-15T12:32:31.927Z,86.56
2022-11-15T12:35:01.601Z,86.52
2022-11-15T12:37:52.148Z,86.18
2022-11-15T12:40:26.052Z,86.59
2022-11-15T12:43:18.603Z,86.03
2022-11-15T12:45:48.124Z,86.10
2022-11-15T12:48:58.996Z,85.77
2022-11-15T12:52:07.314Z,85.85
2022-11-15T12:55:12.309Z,86.19
2022-11-15T12:57:45.604Z,86.79
2022-11-15T13:00:42.792Z,86.49
2022-11-15T13:03:29.079Z,86.79
2022-11-15T13:06:31.500Z,87.05
2022-11-15T13:09:01.514Z,87.47
2022-11-15T13:12:00.885Z,87.10
2022-11-15T13:14:50.172Z,86.85
2022-11-15T13:17:44.884Z,86.78
2022-11-15T13:20:25.510Z,87.05
2022-11-15T13:23:03.291Z,87.12
2022-11-15T13:26:05.082Z,86.75
2022-11-15T13:28:36.575Z,87.05
2022-11-15T13:31:20.516Z,86.78
2022-11-15T13:33:49.331Z,86.77
2022-11-15T13:36:22.528Z,86.71
2022-11-15T13:38:59.316Z,86.68
2022-11-15T13:41:30.763Z,86.45
2022-11-15T13:44:01.541Z,86.59
2022-11-15T13:46:30.999Z,86.61
2022-11-15T13:49:02.116Z,86.68
2022-11-15T13:51:36.317Z,86.57
2022-11-15T13:54:15.048Z,86.83
2022-11-15T13:56:47.998Z,86.66
2022-11-15T13:59:26.605Z,86.38
2022-11-15T14:01:56.193Z,86.70
2022-11-15T14:04:30.830Z,86.90
2022-11-15T14:07:02.292Z,87.35
2022-11-15T14:09:36.664Z,87.20
2022-11-15T14:12:28.809Z,87.11
2022-11-15T14:14:57.360Z,87.48
2022-11-15T14:17:38.263Z,86.96
2022-11-15T14:20:28.527Z,86.71
2022-11-15T14:22:58.338Z,87.06
2022-11-15T14:25:28.219Z,87.16
2022-11-15T14:28:16.682Z,86.86
2022-11-15T14:30:48.330Z,87.01
2022-11-15T14:33:26.294Z,86.80
2022-11-15T14:35:56.434Z,86.97
2022-11-15T14:38:25.192Z,87.30
2022-11-15T14:40:55.039Z,87.39
2022-11-15T14:43:25.096Z,88.09
2022-11-15T14:45:53.539Z,88.18
2022-11-15T14:48:24.159Z,88.30
2022-11-15T14:50:54.945Z,87.83
2022-11-15T14:53:24.493Z,87.26
2022-11-15T14:55:53.086Z,87.98
2022-11-15T14:58:21.594Z,87.82
2022-11-15T15:00:51.518Z,87.42
2022-11-15T15:03:20.070Z,86.95
2022-11-15T15:05:48.683Z,86.60
2022-11-15T15:08:17.323Z,86.16
2022-11-15T15:10:47.807Z,85.92
2022-11-15T15:13:20.574Z,85.77
2022-11-15T15:15:52.236Z,85.58
2022-11-15T15:18:21.522Z,85.22
2022-11-15T15:21:01.205Z,85.39
2022-11-15T15:23:32.062Z,85.33
2022-11-15T15:26:01.027Z,85.02
2022-11-15T15:28:34.289Z,84.85
2022-11-15T15:31:04.897Z,84.38
2022-11-15T15:33:34.352Z,84.38
2022-11-15T15:36:04.179Z,84.26
2022-11-15T15:38:33.082Z,84.11
2022-11-15T15:41:04.051Z,83.91
2022-11-15T15:43:32.459Z,84.05
2022-11-15T15:46:04.509Z,83.68
2022-11-15T15:48:38.357Z,83.57
2022-11-15T15:51:14.054Z,83.36
2022-11-15T15:53:47.130Z,83.50
2022-11-15T15:56:15.626Z,83.34
2022-11-15T15:58:44.184Z,83.44
2022-11-15T16:01:12.808Z,83.62
2022-11-15T16:03:42.896Z,83.74
2022-11-15T16:06:36.142Z,83.41
2022-11-15T16:09:14.967Z,83.80
2022-11-15T16:11:44.998Z,83.87
2022-11-15T16:14:13.653Z,83.82
2022-11-15T16:16:42.134Z,83.93
2022-11-15T16:19:13.715Z,83.81
2022-11-15T16:21:42.503Z,83.77
2022-11-15T16:24:10.996Z,83.47
2022-11-15T16:26:40.415Z,83.66
2022-11-15T16:29:11.286Z,83.51
2022-11-15T16:31:39.990Z,83.38
2022-11-15T16:34:08.621Z,83.67
2022-11-15T16:36:38.669Z,83.78
2022-11-15T16:39:07.652Z,83.56
2022-11-15T16:41:36.306Z,83.37
2022-11-15T16:44:04.833Z,83.77
2022-11-15T16:46:33.738Z,83.53
2022-11-15T16:49:02.619Z,83.53
2022-11-15T16:51:31.353Z,83.42
2022-11-15T16:54:01.323Z,83.28
2022-11-15T16:56:32.092Z,83.17
2022-11-15T16:59:01.998Z,82.98
2022-11-15T17:01:33.714Z,82.86
2022-11-15T17:04:12.933Z,82.78
2022-11-15T17:06:41.959Z,83.11
2022-11-15T17:09:13.072Z,83.03
2022-11-15T17:11:42.603Z,83.01
2022-11-15T17:14:11.619Z,83.23
2022-11-15T17:16:42.694Z,83.32
2022-11-15T17:19:15.375Z,83.47
2022-11-15T17:21:44.338Z,83.66
2022-11-15T17:24:14.419Z,83.65
2022-11-15T17:26:44.158Z,83.79
2022-11-15T17:29:12.848Z,83.59
2022-11-15T17:31:41.309Z,83.15
2022-11-15T17:34:09.895Z,82.91
2022-11-15T17:36:38.500Z,82.92
2022-11-15T17:39:07.384Z,83.07
2022-11-15T17:41:37.349Z,83.06
2022-11-15T17:44:08.224Z,82.99
2022-11-15T17:46:37.254Z,82.66
2022-11-15T17:49:06.031Z,83.14
2022-11-15T17:51:35.910Z,82.91
2022-11-15T17:54:04.420Z,82.71
2022-11-15T17:56:33.343Z,82.49
2022-11-15T17:59:13.723Z,82.24
2022-11-15T18:01:45.496Z,82.48
2022-11-15T18:04:15.177Z,82.19
2022-11-15T18:06:43.905Z,82.08
2022-11-15T18:09:13.860Z,82.09
2022-11-15T18:11:45.018Z,82.00
2022-11-15T18:14:16.987Z,82.02
2022-11-15T18:16:46.557Z,82.46
2022-11-15T18:19:15.388Z,82.42
2022-11-15T18:21:59.362Z,81.95
2022-11-15T18:24:38.695Z,81.99
2022-11-15T18:27:08.695Z,82.28
2022-11-15T18:29:39.640Z,82.29
2022-11-15T18:32:12.712Z,82.26
2022-11-15T18:34:44.247Z,82.33
2022-11-15T18:37:13.052Z,82.39
2022-11-15T18:39:52.657Z,82.30
2022-11-15T18:42:22.496Z,82.26
2022-11-15T18:44:56.634Z,82.22
2022-11-15T18:47:25.294Z,82.42
2022-11-15T18:49:58.574Z,82.31
2022-11-15T18:52:28.210Z,82.39
2022-11-15T18:54:57.921Z,82.45
2022-11-15T18:57:28.454Z,82.37
2022-11-15T19:00:00.655Z,82.37
2022-11-15T19:02:30.365Z,82.59
2022-11-15T19:04:59.897Z,82.81
2022-11-15T19:07:28.598Z,82.65
2022-11-15T19:09:57.544Z,82.54
2022-11-15T19:12:26.111Z,82.80
2022-11-15T19:14:56.740Z,82.84
2022-11-15T19:17:28.525Z,78.70
2022-11-15T19:19:58.239Z,80.66
2022-11-15T19:22:30.174Z,81.21
2022-11-15T19:25:04.859Z,81.59
2022-11-15T19:27:49.600Z,81.91
2022-11-15T19:30:18.901Z,82.72
2022-11-15T19:32:50.060Z,82.50
2022-11-15T19:35:23.329Z,82.54
2022-11-15T19:37:59.790Z,82.30
2022-11-15T19:40:33.258Z,82.46
2022-11-15T19:43:03.461Z,82.77
2022-11-15T19:45:37.763Z,82.82
2022-11-15T19:48:08.402Z,82.78
2022-11-15T19:50:44.257Z,82.71
2022-11-15T19:53:25.124Z,82.50
2022-11-15T19:55:57.148Z,82.67
2022-11-15T19:58:34.147Z,82.41
2022-11-15T20:01:07.667Z,82.72
2022-11-15T20:03:44.048Z,82.69
2022-11-15T20:06:15.937Z,82.35
2022-11-15T20:09:03.683Z,82.17
2022-11-15T20:11:35.116Z,82.11
2022-11-15T20:14:30.490Z,81.93
2022-11-15T20:16:59.307Z,82.34
2022-11-15T20:19:32.444Z,82.26
2022-11-15T20:22:01.545Z,82.37
2022-11-15T20:24:40.158Z,82.08
2022-11-15T20:27:12.099Z,82.27
2022-11-15T20:29:43.889Z,82.12
2022-11-15T20:32:47.893Z,81.77
2022-11-15T20:35:18.147Z,82.28
2022-11-15T20:38:20.782Z,82.30
2022-11-15T20:40:59.009Z,82.46
2022-11-15T20:43:28.885Z,82.58
2022-11-15T20:45:57.413Z,82.42
2022-11-15T20:48:33.062Z,82.42
2022-11-15T20:51:12.424Z,82.36
2022-11-15T20:53:50.208Z,82.59
2022-11-15T20:56:22.943Z,82.80
2022-11-15T20:58:55.104Z,83.10
2022-11-15T21:01:26.038Z,83.22
2022-11-15T21:03:55.301Z,82.99
2022-11-15T21:06:35.013Z,83.38
2022-11-15T21:09:23.196Z,83.54
2022-11-15T21:12:14.060Z,83.67
2022-11-15T21:14:46.683Z,83.73
2022-11-15T21:17:19.117Z,83.64
2022-11-15T21:19:47.971Z,83.39
2022-11-15T21:22:25.056Z,83.30
2022-11-15T21:24:54.808Z,83.89
2022-11-15T21:27:25.259Z,83.24
2022-11-15T21:29:55.867Z,83.07
2022-11-15T21:32:30.725Z,83.03
2022-11-15T21:35:00.832Z,83.77
2022-11-15T21:38:06.826Z,83.25
2022-11-15T21:40:35.378Z,83.50
2022-11-15T21:43:03.956Z,83.45
2022-11-15T21:45:36.189Z,83.23
2022-11-15T21:48:14.433Z,82.96
2022-11-15T21:51:08.704Z,83.00
2022-11-15T21:54:12.409Z,83.23
2022-11-15T21:56:48.140Z,83.02
2022-11-15T22:09:07.962Z,84.26
2022-11-15T22:16:22.123Z,83.92
2022-11-15T22:23:25.166Z,80.61
2022-11-15T22:30:37.531Z,80.12
2022-11-15T22:42:32.497Z,79.58
2022-11-15T22:54:33.241Z,79.88
2022-11-15T23:06:42.582Z,79.41
2022-11-15T23:09:23.114Z,79.46
2022-11-15T23:12:13.651Z,79.40
2022-11-15T23:15:11.817Z,79.18
2022-11-15T23:18:11.427Z,79.87
2022-11-15T23:20:43.441Z,80.34
2022-11-15T23:23:13.874Z,80.62
2022-11-15T23:25:43.085Z,80.61
2022-11-15T23:28:17.936Z,80.75
2022-11-15T23:31:04.981Z,80.62
2022-11-15T23:33:53.976Z,80.54
2022-11-15T23:36:26.557Z,80.50
2022-11-15T23:38:57.044Z,80.81
2022-11-15T23:41:27.878Z,80.61
2022-11-15T23:43:56.533Z,80.93
2022-11-15T23:46:26.488Z,81.17
2022-11-15T23:48:56.259Z,81.31
2022-11-15T23:51:32.209Z,80.92
2022-11-15T23:54:02.516Z,81.10
2022-11-15T23:56:32.457Z,81.00
2022-11-15T23:59:02.467Z,80.74
